Alts de Monte Brisas, Puerto Rico
Current Conditions -  °F | °C
As of 5:53 PM on Wednesday 28 Jan 2015 (Local Time) from TJNR Reporting Station
Clear Clear  
Wind Chill: 27°   Ceiling: Unl
Heat Index: 29°   Visibility: 10mi
Dew Point: 22°   Wind: 5mph
Humidity: 76%   Direction: 120°ESE
Pressure: 29.98"   Gusts: NA
Location:  18.3304°N, 65.6573°W
Report Text: TJNR 282153Z AUTO 12004KT 10SM CLR 27/22 A2998 RMK AO2 SLP152 T02670222 $
Loading
Personal Weather Stations






























Interactive Weather Map New forecast layout! Learn more

10-Day Weather Forecast

Advertisements
Track Severe Weather on mobile